sensor_id;sensor_type;location;lat;lon;timestamp;temperature;humidity
9448;DHT22;4762;48.128;11.376;2023-05-10T00:00:42;13.10;99.90
9448;DHT22;4762;48.128;11.376;2023-05-10T00:02:44;13.00;99.90
9448;DHT22;4762;48.128;11.376;2023-05-10T00:04:46;13.00;99.90
9448;DHT22;4762;48.128;11.376;2023-05-10T00:06:49;13.00;99.90
9448;DHT22;4762;48.128;11.376;2023-05-10T00:08:51;13.00;99.90
9448;DHT22;4762;48.128;11.376;2023-05-10T00:10:53;12.90;99.90
9448;DHT22;4762;48.128;11.376;2023-05-10T00:12:56;12.90;99.90
9448;DHT22;4762;48.128;11.376;2023-05-10T00:14:58;12.90;99.90
9448;DHT22;4762;48.128;11.376;2023-05-10T00:17:00;12.80;99.90
9448;DHT22;4762;48.128;11.376;2023-05-10T00:19:03;12.90;99.90
9448;DHT22;4762;48.128;11.376;2023-05-10T00:21:05;12.90;99.90
9448;DHT22;4762;48.128;11.376;2023-05-10T00:23:07;12.90;99.90
9448;DHT22;4762;48.128;11.376;2023-05-10T00:25:09;12.80;99.90
9448;DHT22;4762;48.128;11.376;2023-05-10T00:27:12;12.80;99.90
9448;DHT22;4762;48.128;11.376;2023-05-10T00:29:15;12.80;99.90
9448;DHT22;4762;48.128;11.376;2023-05-10T00:31:17;12.70;99.90
9448;DHT22;4762;48.128;11.376;2023-05-10T00:33:19;12.80;99.90
9448;DHT22;4762;48.128;11.376;2023-05-10T00:35:21;12.80;99.90
9448;DHT22;4762;48.128;11.376;2023-05-10T00:37:24;12.80;99.90
9448;DHT22;4762;48.128;11.376;2023-05-10T00:39:26;12.70;99.90
9448;DHT22;4762;48.128;11.376;2023-05-10T00:41:28;12.70;99.90
9448;DHT22;4762;48.128;11.376;2023-05-10T00:43:30;12.70;99.90
9448;DHT22;4762;48.128;11.376;2023-05-10T00:45:33;12.70;99.90
9448;DHT22;4762;48.128;11.376;2023-05-10T00:47:35;12.70;99.90
9448;DHT22;4762;48.128;11.376;2023-05-10T00:49:38;12.70;99.90
9448;DHT22;4762;48.128;11.376;2023-05-10T00:51:40;12.80;99.90
9448;DHT22;4762;48.128;11.376;2023-05-10T00:53:43;12.80;99.90
9448;DHT22;4762;48.128;11.376;2023-05-10T00:55:44;12.80;99.90
9448;DHT22;4762;48.128;11.376;2023-05-10T00:57:47;12.80;99.90
9448;DHT22;4762;48.128;11.376;2023-05-10T00:59:49;12.70;99.90
9448;DHT22;4762;48.128;11.376;2023-05-10T01:01:52;12.70;99.90
9448;DHT22;4762;48.128;11.376;2023-05-10T01:03:54;12.70;99.90
9448;DHT22;4762;48.128;11.376;2023-05-10T01:05:56;12.70;99.90
9448;DHT22;4762;48.128;11.376;2023-05-10T01:07:58;12.70;99.90
9448;DHT22;4762;48.128;11.376;2023-05-10T01:10:01;12.70;99.90
9448;DHT22;4762;48.128;11.376;2023-05-10T01:12:04;12.70;99.90
9448;DHT22;4762;48.128;11.376;2023-05-10T01:14:07;12.70;99.90
9448;DHT22;4762;48.128;11.376;2023-05-10T01:16:09;12.70;99.90
9448;DHT22;4762;48.128;11.376;2023-05-10T01:18:12;12.60;99.90
9448;DHT22;4762;48.128;11.376;2023-05-10T01:20:14;12.60;99.90
9448;DHT22;4762;48.128;11.376;2023-05-10T01:22:25;12.60;99.90
9448;DHT22;4762;48.128;11.376;2023-05-10T01:24:36;12.60;99.90
9448;DHT22;4762;48.128;11.376;2023-05-10T01:31:21;12.50;99.90
9448;DHT22;4762;48.128;11.376;2023-05-10T01:33:30;12.60;99.90
9448;DHT22;4762;48.128;11.376;2023-05-10T01:35:57;12.60;99.90
9448;DHT22;4762;48.128;11.376;2023-05-10T01:38:04;12.50;99.90
9448;DHT22;4762;48.128;11.376;2023-05-10T01:40:17;12.40;99.90
9448;DHT22;4762;48.128;11.376;2023-05-10T01:42:17;12.50;99.90
9448;DHT22;4762;48.128;11.376;2023-05-10T01:44:25;12.40;99.90
9448;DHT22;4762;48.128;11.376;2023-05-10T01:46:28;12.40;99.90
9448;DHT22;4762;48.128;11.376;2023-05-10T01:48:31;12.40;99.90
9448;DHT22;4762;48.128;11.376;2023-05-10T01:50:35;12.40;99.90
9448;DHT22;4762;48.128;11.376;2023-05-10T01:52:37;12.40;99.90
9448;DHT22;4762;48.128;11.376;2023-05-10T01:54:41;12.40;99.90
9448;DHT22;4762;48.128;11.376;2023-05-10T01:56:41;12.40;99.90
9448;DHT22;4762;48.128;11.376;2023-05-10T01:58:43;12.40;99.90
9448;DHT22;4762;48.128;11.376;2023-05-10T02:00:46;12.40;99.90
9448;DHT22;4762;48.128;11.376;2023-05-10T02:02:48;12.40;99.90
9448;DHT22;4762;48.128;11.376;2023-05-10T02:04:50;12.40;99.90
9448;DHT22;4762;48.128;11.376;2023-05-10T02:06:53;12.40;99.90
9448;DHT22;4762;48.128;11.376;2023-05-10T02:08:55;12.40;99.90
9448;DHT22;4762;48.128;11.376;2023-05-10T02:10:58;12.40;99.90
9448;DHT22;4762;48.128;11.376;2023-05-10T02:13:00;12.40;99.90
9448;DHT22;4762;48.128;11.376;2023-05-10T02:15:04;12.30;99.90
9448;DHT22;4762;48.128;11.376;2023-05-10T02:17:05;12.40;99.90
9448;DHT22;4762;48.128;11.376;2023-05-10T02:19:08;12.40;99.90
9448;DHT22;4762;48.128;11.376;2023-05-10T02:21:10;12.30;99.90
9448;DHT22;4762;48.128;11.376;2023-05-10T02:23:13;12.30;99.90
9448;DHT22;4762;48.128;11.376;2023-05-10T02:25:15;12.30;99.90
9448;DHT22;4762;48.128;11.376;2023-05-10T02:27:17;12.30;99.90
9448;DHT22;4762;48.128;11.376;2023-05-10T02:29:19;12.30;99.90
9448;DHT22;4762;48.128;11.376;2023-05-10T02:31:21;12.30;99.90
9448;DHT22;4762;48.128;11.376;2023-05-10T02:33:23;12.40;99.90
9448;DHT22;4762;48.128;11.376;2023-05-10T02:35:26;12.40;99.90
9448;DHT22;4762;48.128;11.376;2023-05-10T02:37:28;12.40;99.90
9448;DHT22;4762;48.128;11.376;2023-05-10T02:39:30;12.40;99.90
9448;DHT22;4762;48.128;11.376;2023-05-10T02:41:32;12.40;99.90
9448;DHT22;4762;48.128;11.376;2023-05-10T02:43:35;12.40;99.90
9448;DHT22;4762;48.128;11.376;2023-05-10T02:45:37;12.30;99.90
9448;DHT22;4762;48.128;11.376;2023-05-10T02:47:39;12.40;99.90
9448;DHT22;4762;48.128;11.376;2023-05-10T02:49:42;12.30;99.90
9448;DHT22;4762;48.128;11.376;2023-05-10T02:51:47;12.30;99.90
9448;DHT22;4762;48.128;11.376;2023-05-10T02:53:46;12.30;99.90
9448;DHT22;4762;48.128;11.376;2023-05-10T02:55:49;12.30;99.90
9448;DHT22;4762;48.128;11.376;2023-05-10T02:57:52;12.30;99.90
9448;DHT22;4762;48.128;11.376;2023-05-10T02:59:53;12.30;99.90
9448;DHT22;4762;48.128;11.376;2023-05-10T03:01:55;12.30;99.90
9448;DHT22;4762;48.128;11.376;2023-05-10T03:03:57;12.30;99.90
9448;DHT22;4762;48.128;11.376;2023-05-10T03:06:00;12.30;99.90
9448;DHT22;4762;48.128;11.376;2023-05-10T03:08:02;12.30;99.90
9448;DHT22;4762;48.128;11.376;2023-05-10T03:10:05;12.30;99.90
9448;DHT22;4762;48.128;11.376;2023-05-10T03:14:42;12.30;99.90
9448;DHT22;4762;48.128;11.376;2023-05-10T03:16:46;12.30;99.90
9448;DHT22;4762;48.128;11.376;2023-05-10T03:18:54;12.30;99.90
9448;DHT22;4762;48.128;11.376;2023-05-10T03:20:56;12.20;99.90
9448;DHT22;4762;48.128;11.376;2023-05-10T03:23:00;12.30;99.90
9448;DHT22;4762;48.128;11.376;2023-05-10T03:24:58;12.30;99.90
9448;DHT22;4762;48.128;11.376;2023-05-10T03:27:00;12.20;99.90
9448;DHT22;4762;48.128;11.376;2023-05-10T03:29:02;12.20;99.90
9448;DHT22;4762;48.128;11.376;2023-05-10T03:31:04;12.20;99.90
9448;DHT22;4762;48.128;11.376;2023-05-10T03:33:07;12.20;99.90
9448;DHT22;4762;48.128;11.376;2023-05-10T03:35:09;12.20;99.90
9448;DHT22;4762;48.128;11.376;2023-05-10T03:37:11;12.20;99.90
9448;DHT22;4762;48.128;11.376;2023-05-10T03:39:13;12.20;99.90
9448;DHT22;4762;48.128;11.376;2023-05-10T03:41:16;12.20;99.90
9448;DHT22;4762;48.128;11.376;2023-05-10T03:43:18;12.20;99.90
9448;DHT22;4762;48.128;11.376;2023-05-10T03:45:20;12.20;99.90
9448;DHT22;4762;48.128;11.376;2023-05-10T03:47:22;12.20;99.90
9448;DHT22;4762;48.128;11.376;2023-05-10T03:49:24;12.20;99.90
9448;DHT22;4762;48.128;11.376;2023-05-10T03:51:27;12.20;99.90
9448;DHT22;4762;48.128;11.376;2023-05-10T03:53:29;12.20;99.90
9448;DHT22;4762;48.128;11.376;2023-05-10T03:55:38;12.20;99.90
9448;DHT22;4762;48.128;11.376;2023-05-10T03:57:40;12.20;99.90
9448;DHT22;4762;48.128;11.376;2023-05-10T03:59:43;12.20;99.90
9448;DHT22;4762;48.128;11.376;2023-05-10T04:01:45;12.20;99.90
9448;DHT22;4762;48.128;11.376;2023-05-10T04:03:47;12.20;99.90
9448;DHT22;4762;48.128;11.376;2023-05-10T04:05:51;12.20;99.90
9448;DHT22;4762;48.128;11.376;2023-05-10T04:07:51;12.20;99.90
9448;DHT22;4762;48.128;11.376;2023-05-10T04:09:54;12.30;99.90
9448;DHT22;4762;48.128;11.376;2023-05-10T04:11:56;12.20;99.90
9448;DHT22;4762;48.128;11.376;2023-05-10T04:13:58;12.30;99.90
9448;DHT22;4762;48.128;11.376;2023-05-10T04:16:00;12.20;99.90
9448;DHT22;4762;48.128;11.376;2023-05-10T04:18:03;12.30;99.90
9448;DHT22;4762;48.128;11.376;2023-05-10T04:20:05;12.30;99.90
9448;DHT22;4762;48.128;11.376;2023-05-10T04:22:08;12.30;99.90
9448;DHT22;4762;48.128;11.376;2023-05-10T04:24:10;12.20;99.90
9448;DHT22;4762;48.128;11.376;2023-05-10T04:26:12;12.30;99.90
9448;DHT22;4762;48.128;11.376;2023-05-10T04:28:14;12.30;99.90
9448;DHT22;4762;48.128;11.376;2023-05-10T04:30:17;12.30;99.90
9448;DHT22;4762;48.128;11.376;2023-05-10T04:32:19;12.30;99.90
9448;DHT22;4762;48.128;11.376;2023-05-10T04:34:21;12.20;99.90
9448;DHT22;4762;48.128;11.376;2023-05-10T04:36:24;12.10;99.90
9448;DHT22;4762;48.128;11.376;2023-05-10T04:38:26;12.10;99.90
9448;DHT22;4762;48.128;11.376;2023-05-10T04:40:28;12.00;99.90
9448;DHT22;4762;48.128;11.376;2023-05-10T04:42:30;12.00;99.90
9448;DHT22;4762;48.128;11.376;2023-05-10T04:44:33;12.10;99.90
9448;DHT22;4762;48.128;11.376;2023-05-10T04:46:35;12.00;99.90
9448;DHT22;4762;48.128;11.376;2023-05-10T04:48:37;12.10;99.90
9448;DHT22;4762;48.128;11.376;2023-05-10T04:50:39;12.00;99.90
9448;DHT22;4762;48.128;11.376;2023-05-10T04:52:42;11.90;99.90
9448;DHT22;4762;48.128;11.376;2023-05-10T04:54:44;11.90;99.90
9448;DHT22;4762;48.128;11.376;2023-05-10T04:56:46;11.90;99.90
9448;DHT22;4762;48.128;11.376;2023-05-10T04:58:48;11.80;99.90
9448;DHT22;4762;48.128;11.376;2023-05-10T05:00:51;11.90;99.90
9448;DHT22;4762;48.128;11.376;2023-05-10T05:02:53;11.90;99.90
9448;DHT22;4762;48.128;11.376;2023-05-10T05:04:56;11.90;99.90
9448;DHT22;4762;48.128;11.376;2023-05-10T05:07:01;11.80;99.90
9448;DHT22;4762;48.128;11.376;2023-05-10T05:09:12;11.80;99.90
9448;DHT22;4762;48.128;11.376;2023-05-10T05:11:14;11.80;99.90
9448;DHT22;4762;48.128;11.376;2023-05-10T05:13:16;11.70;99.90
9448;DHT22;4762;48.128;11.376;2023-05-10T05:15:18;11.60;99.90
9448;DHT22;4762;48.128;11.376;2023-05-10T05:17:21;11.60;99.90
9448;DHT22;4762;48.128;11.376;2023-05-10T05:19:23;11.70;99.90
9448;DHT22;4762;48.128;11.376;2023-05-10T05:21:26;11.70;99.90
9448;DHT22;4762;48.128;11.376;2023-05-10T05:23:28;11.60;99.90
9448;DHT22;4762;48.128;11.376;2023-05-10T05:25:30;11.40;99.90
9448;DHT22;4762;48.128;11.376;2023-05-10T05:27:32;11.30;99.90
9448;DHT22;4762;48.128;11.376;2023-05-10T05:29:34;11.30;99.90
9448;DHT22;4762;48.128;11.376;2023-05-10T05:31:37;11.20;99.90
9448;DHT22;4762;48.128;11.376;2023-05-10T05:33:39;11.10;99.90
9448;DHT22;4762;48.128;11.376;2023-05-10T05:35:42;11.20;99.90
9448;DHT22;4762;48.128;11.376;2023-05-10T05:37:45;11.30;99.90
9448;DHT22;4762;48.128;11.376;2023-05-10T05:39:48;11.30;99.90
9448;DHT22;4762;48.128;11.376;2023-05-10T05:41:50;11.30;99.90
9448;DHT22;4762;48.128;11.376;2023-05-10T05:43:52;11.40;99.90
9448;DHT22;4762;48.128;11.376;2023-05-10T05:45:54;11.40;99.90
9448;DHT22;4762;48.128;11.376;2023-05-10T05:47:57;11.60;99.90
9448;DHT22;4762;48.128;11.376;2023-05-10T05:49:59;11.60;99.90
9448;DHT22;4762;48.128;11.376;2023-05-10T05:52:01;11.60;99.90
9448;DHT22;4762;48.128;11.376;2023-05-10T05:54:03;11.70;99.90
9448;DHT22;4762;48.128;11.376;2023-05-10T05:56:06;11.70;99.90
9448;DHT22;4762;48.128;11.376;2023-05-10T05:58:08;11.70;99.90
9448;DHT22;4762;48.128;11.376;2023-05-10T06:00:11;11.80;99.90
9448;DHT22;4762;48.128;11.376;2023-05-10T06:02:13;11.80;99.90
9448;DHT22;4762;48.128;11.376;2023-05-10T06:04:15;11.70;99.90
9448;DHT22;4762;48.128;11.376;2023-05-10T06:06:18;11.70;99.90
9448;DHT22;4762;48.128;11.376;2023-05-10T06:08:20;11.80;99.90
9448;DHT22;4762;48.128;11.376;2023-05-10T06:10:22;11.80;99.90
9448;DHT22;4762;48.128;11.376;2023-05-10T06:12:24;11.90;99.90
9448;DHT22;4762;48.128;11.376;2023-05-10T06:14:26;12.20;99.90
9448;DHT22;4762;48.128;11.376;2023-05-10T06:16:31;12.30;99.90
9448;DHT22;4762;48.128;11.376;2023-05-10T06:18:33;12.40;99.90
9448;DHT22;4762;48.128;11.376;2023-05-10T06:20:35;12.70;99.90
9448;DHT22;4762;48.128;11.376;2023-05-10T06:22:37;12.80;99.90
9448;DHT22;4762;48.128;11.376;2023-05-10T06:24:40;13.10;99.90
9448;DHT22;4762;48.128;11.376;2023-05-10T06:26:42;13.10;99.90
9448;DHT22;4762;48.128;11.376;2023-05-10T06:28:44;13.20;99.90
9448;DHT22;4762;48.128;11.376;2023-05-10T06:30:46;13.50;99.90
9448;DHT22;4762;48.128;11.376;2023-05-10T06:32:49;13.60;99.90
9448;DHT22;4762;48.128;11.376;2023-05-10T06:34:51;13.80;99.90
9448;DHT22;4762;48.128;11.376;2023-05-10T06:36:53;14.00;99.90
9448;DHT22;4762;48.128;11.376;2023-05-10T06:38:55;14.00;99.90
9448;DHT22;4762;48.128;11.376;2023-05-10T06:40:58;14.20;99.90
9448;DHT22;4762;48.128;11.376;2023-05-10T06:43:00;14.30;99.90
9448;DHT22;4762;48.128;11.376;2023-05-10T06:45:02;14.60;99.90
9448;DHT22;4762;48.128;11.376;2023-05-10T06:47:05;14.60;99.90
9448;DHT22;4762;48.128;11.376;2023-05-10T06:49:07;14.40;99.90
9448;DHT22;4762;48.128;11.376;2023-05-10T06:51:09;14.10;99.90
9448;DHT22;4762;48.128;11.376;2023-05-10T06:53:13;14.10;99.90
9448;DHT22;4762;48.128;11.376;2023-05-10T06:55:16;14.80;99.90
9448;DHT22;4762;48.128;11.376;2023-05-10T06:57:18;15.00;99.90
9448;DHT22;4762;48.128;11.376;2023-05-10T06:59:20;15.30;99.90
9448;DHT22;4762;48.128;11.376;2023-05-10T07:01:22;15.70;99.90
9448;DHT22;4762;48.128;11.376;2023-05-10T07:03:25;15.30;99.90
9448;DHT22;4762;48.128;11.376;2023-05-10T07:05:27;15.30;99.90
9448;DHT22;4762;48.128;11.376;2023-05-10T07:07:30;15.00;99.90
9448;DHT22;4762;48.128;11.376;2023-05-10T07:09:33;14.50;99.90
9448;DHT22;4762;48.128;11.376;2023-05-10T07:11:35;14.60;99.90
9448;DHT22;4762;48.128;11.376;2023-05-10T07:13:39;14.60;99.90
9448;DHT22;4762;48.128;11.376;2023-05-10T07:15:41;14.60;99.90
9448;DHT22;4762;48.128;11.376;2023-05-10T07:17:44;14.50;99.90
9448;DHT22;4762;48.128;11.376;2023-05-10T07:19:49;14.40;99.90
9448;DHT22;4762;48.128;11.376;2023-05-10T07:21:51;14.70;99.90
9448;DHT22;4762;48.128;11.376;2023-05-10T07:23:54;14.70;99.90
9448;DHT22;4762;48.128;11.376;2023-05-10T07:25:57;14.70;99.90
9448;DHT22;4762;48.128;11.376;2023-05-10T07:27:59;14.50;99.90
9448;DHT22;4762;48.128;11.376;2023-05-10T07:30:03;14.50;99.90
9448;DHT22;4762;48.128;11.376;2023-05-10T07:32:06;14.60;99.90
9448;DHT22;4762;48.128;11.376;2023-05-10T07:34:08;14.80;99.90
9448;DHT22;4762;48.128;11.376;2023-05-10T07:36:13;14.90;99.90
9448;DHT22;4762;48.128;11.376;2023-05-10T07:38:15;14.90;99.90
9448;DHT22;4762;48.128;11.376;2023-05-10T07:40:18;14.70;99.90
9448;DHT22;4762;48.128;11.376;2023-05-10T07:42:20;14.70;99.90
9448;DHT22;4762;48.128;11.376;2023-05-10T07:44:23;14.80;99.90
9448;DHT22;4762;48.128;11.376;2023-05-10T07:46:27;14.80;99.90
9448;DHT22;4762;48.128;11.376;2023-05-10T07:48:29;14.70;99.90
9448;DHT22;4762;48.128;11.376;2023-05-10T07:50:32;14.90;99.90
9448;DHT22;4762;48.128;11.376;2023-05-10T07:52:37;14.90;99.90
9448;DHT22;4762;48.128;11.376;2023-05-10T07:54:39;14.90;99.90
9448;DHT22;4762;48.128;11.376;2023-05-10T07:56:44;15.30;99.90
9448;DHT22;4762;48.128;11.376;2023-05-10T07:58:46;15.40;99.90
9448;DHT22;4762;48.128;11.376;2023-05-10T08:00:48;15.50;99.90
9448;DHT22;4762;48.128;11.376;2023-05-10T08:02:55;15.60;99.90
9448;DHT22;4762;48.128;11.376;2023-05-10T08:04:58;15.50;99.90
9448;DHT22;4762;48.128;11.376;2023-05-10T08:07:00;15.50;99.90
9448;DHT22;4762;48.128;11.376;2023-05-10T08:09:02;15.40;99.90
9448;DHT22;4762;48.128;11.376;2023-05-10T08:11:04;15.20;99.90
9448;DHT22;4762;48.128;11.376;2023-05-10T08:13:06;15.30;99.90
9448;DHT22;4762;48.128;11.376;2023-05-10T08:15:10;15.20;99.90
9448;DHT22;4762;48.128;11.376;2023-05-10T08:17:13;15.00;99.90
9448;DHT22;4762;48.128;11.376;2023-05-10T08:19:15;14.90;99.90
9448;DHT22;4762;48.128;11.376;2023-05-10T08:21:17;15.10;99.90
9448;DHT22;4762;48.128;11.376;2023-05-10T08:23:22;15.60;99.90
9448;DHT22;4762;48.128;11.376;2023-05-10T08:27:45;15.70;99.90
9448;DHT22;4762;48.128;11.376;2023-05-10T08:29:47;15.90;99.90
9448;DHT22;4762;48.128;11.376;2023-05-10T08:31:49;16.00;99.90
9448;DHT22;4762;48.128;11.376;2023-05-10T08:33:51;15.80;99.90
9448;DHT22;4762;48.128;11.376;2023-05-10T08:35:54;15.70;99.90
9448;DHT22;4762;48.128;11.376;2023-05-10T08:37:57;15.50;99.90
9448;DHT22;4762;48.128;11.376;2023-05-10T08:39:59;15.40;99.90
9448;DHT22;4762;48.128;11.376;2023-05-10T08:42:02;16.10;99.90
9448;DHT22;4762;48.128;11.376;2023-05-10T08:44:04;16.10;99.90
9448;DHT22;4762;48.128;11.376;2023-05-10T08:46:07;15.90;99.90
9448;DHT22;4762;48.128;11.376;2023-05-10T08:50:47;15.30;99.90
9448;DHT22;4762;48.128;11.376;2023-05-10T10:02:39;18.00;91.90
9448;DHT22;4762;48.128;11.376;2023-05-10T10:07:22;18.40;87.30
9448;DHT22;4762;48.128;11.376;2023-05-10T10:09:21;18.30;81.00
9448;DHT22;4762;48.128;11.376;2023-05-10T10:11:25;17.60;86.10
9448;DHT22;4762;48.128;11.376;2023-05-10T10:15:42;19.70;86.10
9448;DHT22;4762;48.128;11.376;2023-05-10T10:20:12;21.00;72.90
9448;DHT22;4762;48.128;11.376;2023-05-10T10:22:14;20.50;69.40
9448;DHT22;4762;48.128;11.376;2023-05-10T10:24:16;19.40;66.60
9448;DHT22;4762;48.128;11.376;2023-05-10T10:26:18;18.70;74.50
9448;DHT22;4762;48.128;11.376;2023-05-10T11:02:43;16.30;99.90
9448;DHT22;4762;48.128;11.376;2023-05-10T11:09:11;16.10;99.90
9448;DHT22;4762;48.128;11.376;2023-05-10T11:11:14;16.20;99.90
9448;DHT22;4762;48.128;11.376;2023-05-10T11:13:16;16.10;99.90
9448;DHT22;4762;48.128;11.376;2023-05-10T11:15:19;16.00;99.90
9448;DHT22;4762;48.128;11.376;2023-05-10T11:17:24;15.30;99.90
9448;DHT22;4762;48.128;11.376;2023-05-10T11:19:27;14.50;99.90
9448;DHT22;4762;48.128;11.376;2023-05-10T11:21:30;14.20;99.90
9448;DHT22;4762;48.128;11.376;2023-05-10T11:23:32;13.90;99.90
9448;DHT22;4762;48.128;11.376;2023-05-10T11:25:34;13.80;99.90
9448;DHT22;4762;48.128;11.376;2023-05-10T11:27:37;13.60;99.90
9448;DHT22;4762;48.128;11.376;2023-05-10T11:29:38;13.60;99.90
9448;DHT22;4762;48.128;11.376;2023-05-10T11:31:43;13.50;99.90
9448;DHT22;4762;48.128;11.376;2023-05-10T11:33:46;13.50;99.90
9448;DHT22;4762;48.128;11.376;2023-05-10T11:35:49;13.00;99.90
9448;DHT22;4762;48.128;11.376;2023-05-10T11:40:21;12.80;99.90
9448;DHT22;4762;48.128;11.376;2023-05-10T11:42:23;12.70;99.90
9448;DHT22;4762;48.128;11.376;2023-05-10T11:44:30;12.90;99.90
9448;DHT22;4762;48.128;11.376;2023-05-10T11:46:32;12.50;99.90
9448;DHT22;4762;48.128;11.376;2023-05-10T11:48:34;12.00;99.90
9448;DHT22;4762;48.128;11.376;2023-05-10T11:50:36;12.00;99.90
9448;DHT22;4762;48.128;11.376;2023-05-10T11:52:39;11.90;99.90
9448;DHT22;4762;48.128;11.376;2023-05-10T11:54:51;11.90;99.90
9448;DHT22;4762;48.128;11.376;2023-05-10T11:56:58;12.00;99.90
9448;DHT22;4762;48.128;11.376;2023-05-10T11:59:03;12.30;99.90
9448;DHT22;4762;48.128;11.376;2023-05-10T12:01:07;12.20;99.90
9448;DHT22;4762;48.128;11.376;2023-05-10T12:03:10;12.00;99.90
9448;DHT22;4762;48.128;11.376;2023-05-10T12:05:13;12.20;99.90
9448;DHT22;4762;48.128;11.376;2023-05-10T12:07:16;12.10;99.90
9448;DHT22;4762;48.128;11.376;2023-05-10T12:09:18;12.00;99.90
9448;DHT22;4762;48.128;11.376;2023-05-10T12:11:23;12.00;99.90
9448;DHT22;4762;48.128;11.376;2023-05-10T12:13:24;12.00;99.90
9448;DHT22;4762;48.128;11.376;2023-05-10T12:15:26;11.90;99.90
9448;DHT22;4762;48.128;11.376;2023-05-10T12:17:28;12.00;99.90
9448;DHT22;4762;48.128;11.376;2023-05-10T12:19:37;12.20;99.90
9448;DHT22;4762;48.128;11.376;2023-05-10T12:21:39;12.50;99.90
9448;DHT22;4762;48.128;11.376;2023-05-10T12:23:42;12.60;99.90
9448;DHT22;4762;48.128;11.376;2023-05-10T12:25:44;12.60;99.90
9448;DHT22;4762;48.128;11.376;2023-05-10T12:27:52;12.50;99.90
9448;DHT22;4762;48.128;11.376;2023-05-10T12:29:59;12.60;99.90
9448;DHT22;4762;48.128;11.376;2023-05-10T12:32:00;12.60;99.90
9448;DHT22;4762;48.128;11.376;2023-05-10T12:34:02;12.50;99.90
9448;DHT22;4762;48.128;11.376;2023-05-10T12:36:05;12.50;99.90
9448;DHT22;4762;48.128;11.376;2023-05-10T12:38:22;12.60;99.90
9448;DHT22;4762;48.128;11.376;2023-05-10T12:40:10;12.60;99.90
9448;DHT22;4762;48.128;11.376;2023-05-10T12:42:12;12.30;99.90
9448;DHT22;4762;48.128;11.376;2023-05-10T12:44:14;12.10;99.90
9448;DHT22;4762;48.128;11.376;2023-05-10T12:46:16;12.00;99.90
9448;DHT22;4762;48.128;11.376;2023-05-10T12:48:18;12.10;99.90
9448;DHT22;4762;48.128;11.376;2023-05-10T12:50:34;12.00;99.90
9448;DHT22;4762;48.128;11.376;2023-05-10T12:52:37;12.20;99.90
9448;DHT22;4762;48.128;11.376;2023-05-10T12:54:39;12.20;99.90
9448;DHT22;4762;48.128;11.376;2023-05-10T12:56:42;12.30;99.90
9448;DHT22;4762;48.128;11.376;2023-05-10T12:58:44;12.30;99.90
9448;DHT22;4762;48.128;11.376;2023-05-10T13:00:47;12.50;99.90
9448;DHT22;4762;48.128;11.376;2023-05-10T13:02:49;12.50;99.90
9448;DHT22;4762;48.128;11.376;2023-05-10T13:04:52;12.40;99.90
9448;DHT22;4762;48.128;11.376;2023-05-10T13:06:54;12.10;99.90
9448;DHT22;4762;48.128;11.376;2023-05-10T13:08:57;12.20;99.90
9448;DHT22;4762;48.128;11.376;2023-05-10T13:11:00;12.10;99.90
9448;DHT22;4762;48.128;11.376;2023-05-10T13:13:02;12.10;99.90
9448;DHT22;4762;48.128;11.376;2023-05-10T13:15:05;12.30;99.90
9448;DHT22;4762;48.128;11.376;2023-05-10T13:17:08;12.40;99.90
9448;DHT22;4762;48.128;11.376;2023-05-10T13:19:10;12.50;99.90
9448;DHT22;4762;48.128;11.376;2023-05-10T13:21:12;12.40;99.90
9448;DHT22;4762;48.128;11.376;2023-05-10T13:23:15;12.30;99.90
9448;DHT22;4762;48.128;11.376;2023-05-10T13:25:18;12.10;99.90
9448;DHT22;4762;48.128;11.376;2023-05-10T13:27:20;12.10;99.90
9448;DHT22;4762;48.128;11.376;2023-05-10T13:29:24;12.10;99.90
9448;DHT22;4762;48.128;11.376;2023-05-10T13:31:26;11.90;99.90
9448;DHT22;4762;48.128;11.376;2023-05-10T13:33:31;11.90;99.90
9448;DHT22;4762;48.128;11.376;2023-05-10T13:35:34;11.90;99.90
9448;DHT22;4762;48.128;11.376;2023-05-10T13:37:36;12.30;99.90
9448;DHT22;4762;48.128;11.376;2023-05-10T13:39:38;12.30;99.90
9448;DHT22;4762;48.128;11.376;2023-05-10T13:41:41;12.20;99.90
9448;DHT22;4762;48.128;11.376;2023-05-10T13:43:43;12.10;99.90
9448;DHT22;4762;48.128;11.376;2023-05-10T13:45:46;11.90;99.90
9448;DHT22;4762;48.128;11.376;2023-05-10T13:47:48;11.90;99.90
9448;DHT22;4762;48.128;11.376;2023-05-10T13:49:50;11.90;99.90
9448;DHT22;4762;48.128;11.376;2023-05-10T13:51:52;11.80;99.90
9448;DHT22;4762;48.128;11.376;2023-05-10T13:53:55;11.90;99.90
9448;DHT22;4762;48.128;11.376;2023-05-10T13:55:57;12.00;99.90
9448;DHT22;4762;48.128;11.376;2023-05-10T13:57:59;12.00;99.90
9448;DHT22;4762;48.128;11.376;2023-05-10T14:00:01;12.10;99.90
9448;DHT22;4762;48.128;11.376;2023-05-10T14:02:04;12.20;99.90
9448;DHT22;4762;48.128;11.376;2023-05-10T14:04:06;12.00;99.90
9448;DHT22;4762;48.128;11.376;2023-05-10T14:06:09;11.80;99.90
9448;DHT22;4762;48.128;11.376;2023-05-10T14:08:11;11.50;99.90
9448;DHT22;4762;48.128;11.376;2023-05-10T14:10:14;11.50;99.90
9448;DHT22;4762;48.128;11.376;2023-05-10T14:12:16;11.60;99.90
9448;DHT22;4762;48.128;11.376;2023-05-10T14:14:20;11.50;99.90
9448;DHT22;4762;48.128;11.376;2023-05-10T14:16:24;11.40;99.90
9448;DHT22;4762;48.128;11.376;2023-05-10T14:18:27;11.30;99.90
9448;DHT22;4762;48.128;11.376;2023-05-10T14:20:29;11.20;99.90
9448;DHT22;4762;48.128;11.376;2023-05-10T14:22:32;11.30;99.90
9448;DHT22;4762;48.128;11.376;2023-05-10T14:24:35;11.40;99.90
9448;DHT22;4762;48.128;11.376;2023-05-10T14:26:40;11.40;99.90
9448;DHT22;4762;48.128;11.376;2023-05-10T14:28:42;11.50;99.90
9448;DHT22;4762;48.128;11.376;2023-05-10T14:30:45;11.60;99.90
9448;DHT22;4762;48.128;11.376;2023-05-10T14:32:48;11.50;99.90
9448;DHT22;4762;48.128;11.376;2023-05-10T14:40:05;11.70;99.90
9448;DHT22;4762;48.128;11.376;2023-05-10T14:42:09;11.60;99.90
9448;DHT22;4762;48.128;11.376;2023-05-10T14:44:12;11.60;99.90
9448;DHT22;4762;48.128;11.376;2023-05-10T14:46:14;11.70;99.90
9448;DHT22;4762;48.128;11.376;2023-05-10T14:48:16;11.50;99.90
9448;DHT22;4762;48.128;11.376;2023-05-10T14:50:22;11.40;99.90
9448;DHT22;4762;48.128;11.376;2023-05-10T14:52:24;11.60;99.90
9448;DHT22;4762;48.128;11.376;2023-05-10T14:54:27;11.70;99.90
9448;DHT22;4762;48.128;11.376;2023-05-10T14:56:29;11.70;99.90
9448;DHT22;4762;48.128;11.376;2023-05-10T14:58:32;11.50;99.90
9448;DHT22;4762;48.128;11.376;2023-05-10T15:00:34;11.60;99.90
9448;DHT22;4762;48.128;11.376;2023-05-10T15:02:37;11.70;99.90
9448;DHT22;4762;48.128;11.376;2023-05-10T15:04:39;11.60;99.90
9448;DHT22;4762;48.128;11.376;2023-05-10T15:06:42;11.50;99.90
9448;DHT22;4762;48.128;11.376;2023-05-10T15:08:44;11.50;99.90
9448;DHT22;4762;48.128;11.376;2023-05-10T15:10:47;11.60;99.90
9448;DHT22;4762;48.128;11.376;2023-05-10T15:12:49;11.50;99.90
9448;DHT22;4762;48.128;11.376;2023-05-10T15:14:52;11.30;99.90
9448;DHT22;4762;48.128;11.376;2023-05-10T15:16:54;11.30;99.90
9448;DHT22;4762;48.128;11.376;2023-05-10T15:18:56;11.10;99.90
9448;DHT22;4762;48.128;11.376;2023-05-10T15:21:04;11.30;99.90
9448;DHT22;4762;48.128;11.376;2023-05-10T15:23:12;11.40;99.90